Terminal Aerodrome Forecast
Issued by NWS Grand Forks, ND

Home | Current Version | Previous Version | Graphics & Text | Print | Product List | Glossary On
Versions: 1 2 3 4 5 6 7 8 9 10 11 12 13
000
FTUS43 KFGF 191100
TAFFAR
TAF
KFAR 191123Z 1912/2012 17015G25KT P6SM SCT100 SCT250
     FM191300 19014KT P6SM SCT250
     FM191500 23015KT P6SM SCT250
     FM191800 24017G27KT P6SM SCT250
     FM200000 27010KT P6SM SKC=

USA.gov is the U.S. government's official web portal to all federal, state and local government web resources and services.